Time;durP1;ratioP1;P1;durP2;ratioP2;P2;SDS_P1;SDS_P2;PMS_P1;PMS_P2;Temp;Humidity;BMP_temperature;BMP_pressure;BME280_temperature;BME280_humidity;BME280_pressure;Samples;Min_cycle;Max_cycle;Signal;HPM_P1;HPM_P2
2023/10/08 00:02:10;;;;;;;3.15;2.20;;;;;;;;;;5085401;28;20040;-76
2023/10/08 00:04:37;;;;;;;3.85;2.67;;;;;;;;;;5070436;28;20028;-77
2023/10/08 00:07:07;;;;;;;4.07;2.25;;;;;;;;;;5086209;28;20021;-76
2023/10/08 00:09:36;;;;;;;3.35;2.45;;;;;;;;;;5071271;28;20056;-75
2023/10/08 00:12:02;;;;;;;4.25;2.47;;;;;;;;;;5063377;28;20022;-76
2023/10/08 00:14:28;;;;;;;6.45;3.25;;;;;;;;;;5049532;28;20032;-76
2023/10/08 00:16:54;;;;;;;4.13;2.80;;;;;;;;;;5041398;28;20013;-76
2023/10/08 00:19:21;;;;;;;4.40;2.97;;;;;;;;;;5040755;28;20033;-75
2023/10/08 00:21:48;;;;;;;4.40;2.65;;;;;;;;;;5051165;28;20025;-76
2023/10/08 00:24:15;;;;;;;6.85;2.97;;;;;;;;;;5069152;28;20024;-76
2023/10/08 00:26:41;;;;;;;4.15;2.97;;;;;;;;;;5068821;28;20021;-77
2023/10/08 00:29:21;;;;;;;5.50;2.88;;;;;;;;;;5070112;28;20087;-76
2023/10/08 00:31:49;;;;;;;3.97;2.42;;;;;;;;;;5080509;28;20029;-77
2023/10/08 00:34:16;;;;;;;3.92;2.17;;;;;;;;;;5049976;28;20020;-76
2023/10/08 00:36:43;;;;;;;5.10;2.47;;;;;;;;;;5065098;28;20031;-76
2023/10/08 00:39:14;;;;;;;5.05;3.00;;;;;;;;;;5061766;28;20135;-76
2023/10/08 00:41:46;;;;;;;3.38;2.42;;;;;;;;;;5056379;28;20029;-76
2023/10/08 00:44:15;;;;;;;3.55;2.35;;;;;;;;;;5056075;28;20110;-76
2023/10/08 00:46:50;;;;;;;4.20;2.67;;;;;;;;;;5055794;28;20025;-76
2023/10/08 00:52:26;;;;;;;3.85;2.25;;;;;;;;;;5058071;28;20406;-74
2023/10/08 00:57:35;;;;;;;5.93;3.28;;;;;;;;;;5050611;28;20488;-75
2023/10/08 01:00:03;;;;;;;5.38;3.00;;;;;;;;;;5048026;28;20029;-74
2023/10/08 01:03:16;;;;;;;5.68;3.10;;;;;;;;;;5040882;28;20390;-74
2023/10/08 01:05:25;;;;;;;5.97;2.72;;;;;;;;;;5039185;28;20119;-74
2023/10/08 01:07:53;;;;;;;5.25;2.90;;;;;;;;;;5037777;28;20025;-75
2023/10/08 01:10:20;;;;;;;5.20;2.55;;;;;;;;;;5034377;28;20083;-75
2023/10/08 01:12:56;;;;;;;3.72;2.50;;;;;;;;;;5034697;28;20022;-75
2023/10/08 01:15:28;;;;;;;4.43;2.70;;;;;;;;;;5054139;28;20100;-75
2023/10/08 01:18:00;;;;;;;4.15;2.80;;;;;;;;;;5069981;28;20108;-75
2023/10/08 01:20:50;;;;;;;4.75;2.80;;;;;;;;;;5057457;28;20394;-74
2023/10/08 01:23:17;;;;;;;4.40;2.83;;;;;;;;;;5053394;28;20029;-76
2023/10/08 01:25:43;;;;;;;4.38;3.20;;;;;;;;;;5034425;28;20085;-76
2023/10/08 01:28:18;;;;;;;6.47;2.72;;;;;;;;;;5032980;28;20029;-76
2023/10/08 01:30:46;;;;;;;5.13;2.80;;;;;;;;;;5036212;28;20025;-74
2023/10/08 01:33:14;;;;;;;5.20;3.00;;;;;;;;;;5032643;28;20022;-75
2023/10/08 01:35:42;;;;;;;4.43;2.60;;;;;;;;;;5033872;28;20064;-76
2023/10/08 01:38:23;;;;;;;3.50;2.53;;;;;;;;;;5034005;28;20458;-75
2023/10/08 01:40:52;;;;;;;4.78;2.70;;;;;;;;;;5036435;28;20039;-75
2023/10/08 01:43:20;;;;;;;11.20;3.17;;;;;;;;;;5033574;28;20017;-74
2023/10/08 01:45:52;;;;;;;5.15;3.03;;;;;;;;;;5049154;28;20032;-74
2023/10/08 01:48:27;;;;;;;;;;;;;;;;;;5035003;28;20030;-75
2023/10/08 01:51:08;;;;;;;4.13;2.67;;;;;;;;;;5032242;28;19979;-76
2023/10/08 01:53:35;;;;;;;4.60;2.83;;;;;;;;;;5036779;28;20017;-75
2023/10/08 01:56:04;;;;;;;7.47;3.05;;;;;;;;;;5049887;28;20037;-75
2023/10/08 01:58:30;;;;;;;7.38;2.80;;;;;;;;;;5051354;28;20409;-74
2023/10/08 02:01:00;;;;;;;4.68;2.33;;;;;;;;;;5048460;28;20423;-75
2023/10/08 02:03:27;;;;;;;4.75;2.72;;;;;;;;;;5034051;28;20029;-75
2023/10/08 02:05:53;;;;;;;4.00;2.88;;;;;;;;;;5034004;28;20036;-75
2023/10/08 02:08:20;;;;;;;4.00;2.53;;;;;;;;;;5033573;28;20421;-75
2023/10/08 02:10:47;;;;;;;4.20;2.75;;;;;;;;;;5033286;28;20030;-75
2023/10/08 02:13:14;;;;;;;2.20;1.90;;;;;;;;;;5031855;28;20128;-74
2023/10/08 02:15:51;;;;;;;4.28;2.38;;;;;;;;;;5038990;28;20048;-76
2023/10/08 02:18:18;;;;;;;4.78;2.83;;;;;;;;;;5052828;28;20017;-76
2023/10/08 02:20:45;;;;;;;4.05;2.53;;;;;;;;;;5053059;28;20051;-75
2023/10/08 02:23:11;;;;;;;4.80;2.60;;;;;;;;;;5052877;28;20172;-76
2023/10/08 02:25:39;;;;;;;5.47;2.67;;;;;;;;;;5050120;28;20036;-76
2023/10/08 02:28:08;;;;;;;3.92;2.58;;;;;;;;;;5049961;28;20025;-76
2023/10/08 02:30:34;;;;;;;3.50;2.38;;;;;;;;;;5052912;28;20498;-75
2023/10/08 02:33:00;;;;;;;4.47;2.25;;;;;;;;;;5052652;28;20432;-76
2023/10/08 02:35:27;;;;;;;4.70;3.00;;;;;;;;;;5052906;28;20017;-75
2023/10/08 02:37:54;;;;;;;5.45;3.20;;;;;;;;;;5067164;28;20028;-77
2023/10/08 02:40:27;;;;;;;3.97;2.55;;;;;;;;;;5052830;28;20054;-75
2023/10/08 02:42:58;;;;;;;3.92;2.53;;;;;;;;;;5053117;28;20367;-75
2023/10/08 02:45:27;;;;;;;3.13;2.30;;;;;;;;;;5053374;28;20021;-74
2023/10/08 02:47:54;;;;;;;3.22;2.15;;;;;;;;;;5067485;28;20028;-75
2023/10/08 02:50:22;;;;;;;3.22;2.17;;;;;;;;;;5052325;28;20101;-75
2023/10/08 02:52:49;;;;;;;2.63;2.05;;;;;;;;;;5052351;28;20021;-75
2023/10/08 02:55:34;;;;;;;3.28;2.47;;;;;;;;;;5052594;28;20017;-75
2023/10/08 02:58:03;;;;;;;5.13;3.00;;;;;;;;;;5045914;28;20472;-75
2023/10/08 03:00:30;;;;;;;2.75;1.92;;;;;;;;;;5032699;28;20128;-74
2023/10/08 03:03:09;;;;;;;3.72;2.53;;;;;;;;;;5032244;28;20068;-74
2023/10/08 03:05:35;;;;;;;3.85;2.00;;;;;;;;;;5032655;28;20033;-76
2023/10/08 03:08:10;;;;;;;2.95;1.90;;;;;;;;;;5032812;28;20029;-76
2023/10/08 03:10:37;;;;;;;2.53;2.20;;;;;;;;;;5031416;28;20024;-74
2023/10/08 03:13:09;;;;;;;3.33;2.33;;;;;;;;;;5031993;28;20025;-76
2023/10/08 03:15:40;;;;;;;;;;;;;;;;;;5032978;28;20445;-75
2023/10/08 03:18:14;;;;;;;3.42;2.20;;;;;;;;;;5033966;28;20043;-74
2023/10/08 03:20:49;;;;;;;3.22;2.10;;;;;;;;;;5051558;28;20503;-75
2023/10/08 03:23:33;;;;;;;4.45;1.92;;;;;;;;;;5067435;28;20036;-75
2023/10/08 03:26:17;;;;;;;3.33;1.95;;;;;;;;;;5052027;28;20551;-75
2023/10/08 03:28:57;;;;;;;3.60;2.03;;;;;;;;;;5051602;28;20436;-75
2023/10/08 03:31:43;;;;;;;3.70;2.20;;;;;;;;;;5067141;28;20490;-75
2023/10/08 03:34:13;;;;;;;4.20;2.42;;;;;;;;;;5051545;28;20128;-75
2023/10/08 03:36:44;;;;;;;2.70;1.80;;;;;;;;;;5067201;28;20111;-75
2023/10/08 03:39:20;;;;;;;4.18;2.42;;;;;;;;;;5051294;28;20444;-75
2023/10/08 03:41:59;;;;;;;3.45;2.35;;;;;;;;;;5051792;28;20111;-75
2023/10/08 03:44:25;;;;;;;3.63;2.13;;;;;;;;;;5051978;28;20053;-74
2023/10/08 03:46:52;;;;;;;3.78;1.98;;;;;;;;;;5052282;28;20017;-76
2023/10/08 03:51:51;;;;;;;2.22;1.50;;;;;;;;;;5031795;28;20022;-75
2023/10/08 03:54:18;;;;;;;3.35;2.22;;;;;;;;;;5050006;28;20029;-75
2023/10/08 03:56:49;;;;;;;3.85;2.00;;;;;;;;;;5067749;28;20123;-75
2023/10/08 03:59:31;;;;;;;3.13;2.13;;;;;;;;;;5052176;28;20094;-75
2023/10/08 04:02:13;;;;;;;3.03;1.90;;;;;;;;;;5052647;28;20056;-75
2023/10/08 04:04:53;;;;;;;3.53;2.03;;;;;;;;;;5067243;28;20086;-74
2023/10/08 04:07:39;;;;;;;2.13;1.50;;;;;;;;;;5052078;28;20051;-75
2023/10/08 04:10:20;;;;;;;2.45;1.80;;;;;;;;;;5047647;28;20021;-75
2023/10/08 04:12:50;;;;;;;4.05;2.05;;;;;;;;;;5032164;28;20017;-75
2023/10/08 04:15:16;;;;;;;3.83;2.03;;;;;;;;;;5035706;28;20032;-75
2023/10/08 04:17:50;;;;;;;3.15;2.00;;;;;;;;;;5052117;28;20024;-75
2023/10/08 04:23:04;;;;;;;4.15;2.38;;;;;;;;;;5035402;28;20100;-76
2023/10/08 04:25:30;;;;;;;4.03;2.03;;;;;;;;;;5035701;28;20028;-74
2023/10/08 04:28:00;;;;;;;2.92;1.90;;;;;;;;;;5035329;28;20039;-75
2023/10/08 04:30:32;;;;;;;4.97;2.83;;;;;;;;;;5051203;28;20025;-75
2023/10/08 04:33:11;;;;;;;4.80;2.45;;;;;;;;;;5051903;28;20094;-75
2023/10/08 04:35:47;;;;;;;2.53;1.80;;;;;;;;;;5046674;28;20039;-75
2023/10/08 04:38:17;;;;;;;3.05;1.85;;;;;;;;;;5055215;28;20034;-76
2023/10/08 04:40:48;;;;;;;2.22;2.00;;;;;;;;;;5054154;28;20027;-76
2023/10/08 04:43:15;;;;;;;3.28;1.95;;;;;;;;;;5034967;28;20522;-75
2023/10/08 04:45:41;;;;;;;6.50;2.30;;;;;;;;;;5035100;28;20075;-75
2023/10/08 04:48:10;;;;;;;3.03;2.05;;;;;;;;;;5035230;28;20112;-76
2023/10/08 04:50:37;;;;;;;3.00;2.03;;;;;;;;;;5034781;28;20021;-75
2023/10/08 04:53:07;;;;;;;2.92;1.42;;;;;;;;;;5051335;28;20020;-75
2023/10/08 04:55:34;;;;;;;3.25;2.10;;;;;;;;;;5070436;28;20029;-75
2023/10/08 04:58:04;;;;;;;4.18;2.42;;;;;;;;;;5054869;28;20021;-75
2023/10/08 05:00:53;;;;;;;5.40;2.75;;;;;;;;;;5054782;28;20074;-75
2023/10/08 05:03:22;;;;;;;4.68;2.75;;;;;;;;;;5038081;28;20022;-75
2023/10/08 05:06:39;;;;;;;6.13;2.70;;;;;;;;;;5033604;28;20025;-75
2023/10/08 05:08:58;;;;;;;3.70;2.00;;;;;;;;;;5032434;28;20033;-75
2023/10/08 05:11:25;;;;;;;3.58;1.60;;;;;;;;;;5034636;28;20022;-77
2023/10/08 05:14:16;;;;;;;4.85;2.40;;;;;;;;;;5050593;28;20017;-75
2023/10/08 05:17:00;;;;;;;7.15;3.50;;;;;;;;;;5051601;28;20023;-74
2023/10/08 05:30:25;;;;;;;35.50;9.80;;;;;;;;;;5034649;28;20076;-75
2023/10/08 05:38:15;;;;;;;13.48;5.97;;;;;;;;;;5054291;28;20041;-75
2023/10/08 06:00:29;;;;;;;5.55;2.58;;;;;;;;;;5035280;28;20099;-75
2023/10/08 06:13:26;;;;;;;5.40;3.10;;;;;;;;;;5048991;28;20039;-74
2023/10/08 06:18:25;;;;;;;6.80;3.00;;;;;;;;;;5055907;28;20032;-75
2023/10/08 06:20:59;;;;;;;5.75;2.88;;;;;;;;;;5069355;28;20071;-74
2023/10/08 06:23:28;;;;;;;5.75;3.70;;;;;;;;;;5044208;28;20384;-75
2023/10/08 06:25:56;;;;;;;4.55;2.83;;;;;;;;;;5033232;28;20017;-75
2023/10/08 06:28:26;;;;;;;7.03;3.60;;;;;;;;;;5032316;28;20036;-77
2023/10/08 06:30:53;;;;;;;5.93;3.05;;;;;;;;;;5033698;28;20057;-75
2023/10/08 06:33:25;;;;;;;4.75;2.45;;;;;;;;;;5038109;28;20475;-75
2023/10/08 06:36:13;;;;;;;7.30;3.78;;;;;;;;;;5068720;28;20037;-75
2023/10/08 06:38:48;;;;;;;3.53;2.15;;;;;;;;;;5053542;28;20017;-75
2023/10/08 06:43:50;;;;;;;3.92;2.42;;;;;;;;;;5046642;28;20033;-76
2023/10/08 06:46:21;;;;;;;4.10;2.85;;;;;;;;;;5033105;28;20476;-76
2023/10/08 06:48:49;;;;;;;4.23;2.50;;;;;;;;;;5033075;28;20033;-75
2023/10/08 06:51:17;;;;;;;2.92;2.33;;;;;;;;;;5033328;28;20025;-75
2023/10/08 06:53:48;;;;;;;3.83;2.28;;;;;;;;;;5039256;28;20468;-75
2023/10/08 06:56:19;;;;;;;3.92;2.47;;;;;;;;;;5048344;28;20049;-75
2023/10/08 06:58:48;;;;;;;5.63;2.20;;;;;;;;;;5046467;28;20025;-75
2023/10/08 07:01:24;;;;;;;4.25;2.40;;;;;;;;;;5043385;28;20063;-75
2023/10/08 07:04:03;;;;;;;4.97;2.78;;;;;;;;;;5040222;28;20047;-75
2023/10/08 07:06:33;;;;;;;5.55;3.10;;;;;;;;;;5053634;28;20387;-74
2023/10/08 07:09:04;;;;;;;7.97;3.70;;;;;;;;;;5054607;28;20021;-75
2023/10/08 07:11:34;;;;;;;5.72;2.90;;;;;;;;;;5053213;28;20025;-75
2023/10/08 07:14:00;;;;;;;7.97;3.13;;;;;;;;;;5067955;28;20025;-74
2023/10/08 07:16:28;;;;;;;5.47;3.00;;;;;;;;;;5036261;28;20025;-75
2023/10/08 07:19:15;;;;;;;7.95;3.38;;;;;;;;;;5079103;22;20044;-77
2023/10/08 07:21:44;;;;;;;4.95;2.40;;;;;;;;;;5052941;28;20386;-78
2023/10/08 07:24:15;;;;;;;4.55;3.00;;;;;;;;;;5055471;28;20364;-77
2023/10/08 07:26:46;;;;;;;4.25;2.65;;;;;;;;;;5036218;28;20506;-78
2023/10/08 07:29:12;;;;;;;6.47;2.78;;;;;;;;;;5031764;28;20034;-77
2023/10/08 07:31:43;;;;;;;6.15;3.30;;;;;;;;;;5030321;28;20030;-77
2023/10/08 07:34:15;;;;;;;5.43;2.80;;;;;;;;;;5029925;28;20037;-77
2023/10/08 07:36:43;;;;;;;5.68;2.55;;;;;;;;;;5048305;28;20049;-78
2023/10/08 07:39:22;;;;;;;4.68;2.45;;;;;;;;;;5050963;28;20064;-77
2023/10/08 07:41:48;;;;;;;4.63;2.63;;;;;;;;;;5051939;28;20052;-78
2023/10/08 07:44:14;;;;;;;5.97;3.17;;;;;;;;;;5042140;28;20024;-78
2023/10/08 07:46:40;;;;;;;7.85;2.63;;;;;;;;;;5037756;28;20083;-78
2023/10/08 07:49:06;;;;;;;5.65;3.00;;;;;;;;;;5038903;28;20064;-78
2023/10/08 07:51:33;;;;;;;5.30;2.80;;;;;;;;;;5037682;28;20032;-78
2023/10/08 07:53:59;;;;;;;6.38;3.25;;;;;;;;;;5037629;28;20279;-78
2023/10/08 07:56:26;;;;;;;8.23;3.13;;;;;;;;;;5038549;28;20017;-78
2023/10/08 07:58:55;;;;;;;8.23;3.58;;;;;;;;;;5028719;28;20022;-78
2023/10/08 08:01:22;;;;;;;10.25;3.78;;;;;;;;;;5023353;28;20204;-78
2023/10/08 08:03:50;;;;;;;8.20;3.70;;;;;;;;;;5024103;28;20018;-78
2023/10/08 08:06:16;;;;;;;6.18;2.90;;;;;;;;;;5019086;28;20021;-78
2023/10/08 08:08:44;;;;;;;9.60;3.50;;;;;;;;;;5017633;28;20030;-77
2023/10/08 08:11:17;;;;;;;6.38;3.72;;;;;;;;;;5015785;28;20034;-77
2023/10/08 08:13:43;;;;;;;8.93;3.53;;;;;;;;;;5016767;28;20018;-78
2023/10/08 08:16:20;;;;;;;7.13;2.92;;;;;;;;;;5017944;28;20062;-77
2023/10/08 08:18:48;;;;;;;8.07;3.28;;;;;;;;;;5017034;28;20022;-77
2023/10/08 08:21:15;;;;;;;8.00;3.83;;;;;;;;;;5017200;28;20026;-78
2023/10/08 08:23:48;;;;;;;11.02;3.65;;;;;;;;;;5015973;28;20056;-78
2023/10/08 08:26:28;;;;;;;8.25;3.10;;;;;;;;;;5020033;28;20044;-77
2023/10/08 08:28:59;;;;;;;7.18;3.35;;;;;;;;;;4999970;28;20089;-77
2023/10/08 08:31:26;;;;;;;9.00;3.63;;;;;;;;;;5013985;28;20112;-77
2023/10/08 08:33:52;;;;;;;9.82;3.42;;;;;;;;;;5017906;28;20156;-77
2023/10/08 08:36:21;;;;;;;10.38;3.55;;;;;;;;;;5017912;28;20033;-78
2023/10/08 08:38:47;;;;;;;7.47;3.25;;;;;;;;;;5017743;28;20038;-77
2023/10/08 08:41:17;;;;;;;9.65;3.45;;;;;;;;;;5019753;28;20108;-78
2023/10/08 08:43:44;;;;;;;5.85;2.63;;;;;;;;;;5021145;28;20529;-78
2023/10/08 08:46:12;;;;;;;7.85;3.40;;;;;;;;;;5022629;28;20022;-78
2023/10/08 08:48:42;;;;;;;8.73;2.83;;;;;;;;;;5021967;28;20030;-78
2023/10/08 08:51:09;;;;;;;5.47;2.92;;;;;;;;;;5039577;28;20030;-76
2023/10/08 08:53:36;;;;;;;5.45;2.65;;;;;;;;;;5043036;28;20022;-78
2023/10/08 08:56:05;;;;;;;7.38;2.42;;;;;;;;;;5051139;28;20052;-77
2023/10/08 08:58:33;;;;;;;3.13;2.30;;;;;;;;;;5043910;28;20102;-78
2023/10/08 09:01:00;;;;;;;3.95;2.10;;;;;;;;;;5019115;28;20026;-78
2023/10/08 09:03:32;;;;;;;3.28;1.92;;;;;;;;;;5018793;28;20373;-77
2023/10/08 09:05:59;;;;;;;2.67;2.10;;;;;;;;;;5018722;28;20057;-77
2023/10/08 09:08:31;;;;;;;4.18;2.25;;;;;;;;;;5022051;28;20117;-78
2023/10/08 09:11:04;;;;;;;7.20;2.22;;;;;;;;;;5038585;28;20025;-78
2023/10/08 09:13:31;;;;;;;3.88;2.47;;;;;;;;;;5037223;28;20022;-79
2023/10/08 09:16:17;;;;;;;6.25;2.78;;;;;;;;;;5038848;28;20112;-78
2023/10/08 09:18:48;;;;;;;6.07;2.80;;;;;;;;;;5032651;28;20062;-77
2023/10/08 09:21:19;;;;;;;5.28;3.05;;;;;;;;;;5017634;28;20054;-78
2023/10/08 09:23:47;;;;;;;5.17;2.80;;;;;;;;;;5018205;28;20017;-78
2023/10/08 09:26:14;;;;;;;5.60;2.78;;;;;;;;;;5017685;28;20026;-78
2023/10/08 09:28:41;;;;;;;5.65;2.50;;;;;;;;;;5027388;28;20014;-78
2023/10/08 09:31:11;;;;;;;10.65;3.45;;;;;;;;;;5040076;28;20057;-77
2023/10/08 09:33:38;;;;;;;5.05;3.33;;;;;;;;;;5040413;28;20025;-77
2023/10/08 09:36:04;;;;;;;7.78;3.40;;;;;;;;;;5037173;28;20040;-76
2023/10/08 09:38:31;;;;;;;7.03;3.38;;;;;;;;;;5039012;28;20143;-76
2023/10/08 09:40:58;;;;;;;6.13;2.95;;;;;;;;;;5036657;28;20022;-76
2023/10/08 09:43:25;;;;;;;10.07;3.30;;;;;;;;;;5035756;28;20472;-79
2023/10/08 09:46:09;;;;;;;8.48;3.38;;;;;;;;;;5037189;28;20029;-77
2023/10/08 09:48:38;;;;;;;4.32;2.90;;;;;;;;;;5027035;28;20036;-78
2023/10/08 09:51:06;;;;;;;5.80;3.15;;;;;;;;;;5021778;28;20018;-78
2023/10/08 09:53:48;;;;;;;6.78;3.25;;;;;;;;;;5022255;28;20173;-76
2023/10/08 09:56:17;;;;;;;;;;;;;;;;;;5022868;28;20090;-78
2023/10/08 09:58:45;;;;;;;9.73;3.58;;;;;;;;;;5020876;28;20015;-78
2023/10/08 10:01:11;;;;;;;14.00;4.18;;;;;;;;;;5019956;28;20029;-78
2023/10/08 10:03:39;;;;;;;8.27;3.80;;;;;;;;;;5020199;28;20026;-76
2023/10/08 10:06:09;;;;;;;18.30;4.07;;;;;;;;;;5021912;28;20184;-78
2023/10/08 10:08:36;;;;;;;11.55;4.45;;;;;;;;;;5020086;28;20028;-77
2023/10/08 10:11:03;;;;;;;8.45;3.83;;;;;;;;;;5021482;28;20448;-77
2023/10/08 10:13:34;;;;;;;8.82;3.72;;;;;;;;;;5037121;28;20057;-77
2023/10/08 10:16:00;;;;;;;10.98;3.47;;;;;;;;;;5036555;28;20033;-77
2023/10/08 10:18:27;;;;;;;6.18;3.80;;;;;;;;;;5042872;28;20064;-77
2023/10/08 10:21:00;;;;;;;9.52;4.00;;;;;;;;;;5020089;28;20030;-77
2023/10/08 10:23:39;;;;;;;10.13;4.13;;;;;;;;;;5024691;28;20053;-77
2023/10/08 10:26:09;;;;;;;7.97;3.42;;;;;;;;;;5018716;28;20101;-77
2023/10/08 10:28:37;;;;;;;11.15;4.18;;;;;;;;;;5017331;28;20117;-77
2023/10/08 10:31:04;;;;;;;9.48;3.60;;;;;;;;;;5016719;28;20030;-78
2023/10/08 10:33:31;;;;;;;6.70;3.42;;;;;;;;;;5016063;28;20029;-77
2023/10/08 10:35:57;;;;;;;8.43;3.38;;;;;;;;;;5018658;28;20076;-78
2023/10/08 10:38:26;;;;;;;7.03;3.70;;;;;;;;;;5016346;28;20040;-78
2023/10/08 10:40:58;;;;;;;9.73;3.97;;;;;;;;;;5036004;28;20123;-78
2023/10/08 10:43:43;;;;;;;;;;;;;;;;;;;;;
2023/10/08 10:49:37;;;;;;;12.52;4.72;;;;;;;;;;5042307;28;20044;-78
2023/10/08 10:51:44;;;;;;;13.80;4.10;;;;;;;;;;5024082;28;20030;-78
2023/10/08 10:54:10;;;;;;;12.07;3.70;;;;;;;;;;5022745;28;20022;-78
2023/10/08 10:56:44;;;;;;;9.07;3.00;;;;;;;;;;5021406;28;20025;-77
2023/10/08 10:59:26;;;;;;;7.50;3.08;;;;;;;;;;5024467;28;20045;-77
2023/10/08 11:01:54;;;;;;;8.68;3.67;;;;;;;;;;5021417;28;20026;-77
2023/10/08 11:04:28;;;;;;;7.03;3.22;;;;;;;;;;5021566;28;20038;-78
2023/10/08 11:06:58;;;;;;;7.95;3.50;;;;;;;;;;5025867;28;20048;-78
2023/10/08 11:09:36;;;;;;;8.05;4.07;;;;;;;;;;5027934;28;20034;-78
2023/10/08 11:12:13;;;;;;;9.63;3.30;;;;;;;;;;5043804;28;20021;-77
2023/10/08 11:14:43;;;;;;;7.43;3.30;;;;;;;;;;5045386;28;20025;-78
2023/10/08 11:17:12;;;;;;;4.68;2.67;;;;;;;;;;5042439;28;20022;-78
2023/10/08 11:19:38;;;;;;;6.72;3.08;;;;;;;;;;5040979;28;20061;-77
2023/10/08 11:22:05;;;;;;;5.88;3.20;;;;;;;;;;5036580;28;20025;-78
2023/10/08 11:24:37;;;;;;;7.75;3.28;;;;;;;;;;5039813;28;20029;-78
2023/10/08 11:27:15;;;;;;;3.78;2.65;;;;;;;;;;5041765;28;20091;-77
2023/10/08 11:29:43;;;;;;;7.03;2.90;;;;;;;;;;5040909;28;20112;-78
2023/10/08 11:32:12;;;;;;;9.50;3.20;;;;;;;;;;5038720;28;20079;-78
2023/10/08 11:34:39;;;;;;;6.90;3.00;;;;;;;;;;5039753;28;20108;-78
2023/10/08 11:37:19;;;;;;;5.30;2.85;;;;;;;;;;5045766;28;20018;-78
2023/10/08 11:39:46;;;;;;;6.00;2.78;;;;;;;;;;5043604;28;20033;-78
2023/10/08 11:42:40;;;;;;;10.32;3.22;;;;;;;;;;5036133;28;20045;-78
2023/10/08 11:45:28;;;;;;;5.85;3.20;;;;;;;;;;5025594;28;20022;-78
2023/10/08 11:47:55;;;;;;;7.82;3.50;;;;;;;;;;5025159;28;20088;-78
2023/10/08 11:50:31;;;;;;;8.48;3.22;;;;;;;;;;5024597;28;20036;-78
2023/10/08 11:53:03;;;;;;;6.35;3.28;;;;;;;;;;5023251;28;20036;-78
2023/10/08 11:55:30;;;;;;;9.40;3.03;;;;;;;;;;5023712;28;20114;-77
2023/10/08 11:57:57;;;;;;;10.75;4.22;;;;;;;;;;5020201;28;20030;-77
2023/10/08 12:00:25;;;;;;;8.82;2.90;;;;;;;;;;5021595;28;20607;-78
2023/10/08 12:02:54;;;;;;;4.45;2.58;;;;;;;;;;5023172;28;20030;-77
2023/10/08 12:05:23;;;;;;;10.38;3.58;;;;;;;;;;5020540;28;20026;-77
2023/10/08 12:07:50;;;;;;;6.45;3.50;;;;;;;;;;5020255;28;20041;-78
2023/10/08 12:10:21;;;;;;;6.72;2.92;;;;;;;;;;5019868;28;20017;-78
2023/10/08 12:12:48;;;;;;;9.13;3.77;;;;;;;;;;5018929;28;20026;-77
2023/10/08 12:15:19;;;;;;;5.32;3.08;;;;;;;;;;5020279;28;20152;-78
2023/10/08 12:17:53;;;;;;;8.38;3.53;;;;;;;;;;5019910;28;20018;-78
2023/10/08 12:20:27;;;;;;;7.13;3.28;;;;;;;;;;5020525;28;20028;-78
2023/10/08 12:22:53;;;;;;;18.60;4.50;;;;;;;;;;5022743;28;20026;-78
2023/10/08 12:25:19;;;;;;;10.52;3.40;;;;;;;;;;5039086;28;20025;-77
2023/10/08 12:27:47;;;;;;;8.32;3.00;;;;;;;;;;5037923;28;20460;-77
2023/10/08 12:30:13;;;;;;;9.05;3.28;;;;;;;;;;5038410;28;20189;-77
2023/10/08 12:32:42;;;;;;;8.95;2.58;;;;;;;;;;5039362;28;20476;-77
2023/10/08 12:35:12;;;;;;;10.80;3.50;;;;;;;;;;5020770;28;20041;-77
2023/10/08 12:37:39;;;;;;;6.80;2.90;;;;;;;;;;5018263;28;20060;-77
2023/10/08 12:40:21;;;;;;;7.43;2.83;;;;;;;;;;5017890;28;20049;-77
2023/10/08 12:42:48;;;;;;;7.80;2.53;;;;;;;;;;5016148;28;20026;-78
2023/10/08 12:45:14;;;;;;;7.78;3.30;;;;;;;;;;5018871;28;20034;-76
2023/10/08 12:47:42;;;;;;;11.13;3.65;;;;;;;;;;5016156;28;20447;-77
2023/10/08 12:50:08;;;;;;;8.18;2.80;;;;;;;;;;5016002;28;20018;-77
2023/10/08 12:52:42;;;;;;;8.60;3.83;;;;;;;;;;5016568;28;20037;-77
2023/10/08 12:55:08;;;;;;;6.72;2.85;;;;;;;;;;5018209;28;20028;-76
2023/10/08 12:57:37;;;;;;;12.15;4.03;;;;;;;;;;5031793;28;20104;-77
2023/10/08 13:00:03;;;;;;;7.38;2.90;;;;;;;;;;5037356;28;20112;-78
2023/10/08 13:02:30;;;;;;;8.18;3.22;;;;;;;;;;5037462;28;20049;-77
2023/10/08 13:04:59;;;;;;;8.43;3.60;;;;;;;;;;5029851;28;20119;-77
2023/10/08 13:07:26;;;;;;;7.95;2.90;;;;;;;;;;5017698;28;20495;-77
2023/10/08 13:09:53;;;;;;;4.70;2.60;;;;;;;;;;5017182;28;20036;-77
2023/10/08 13:12:19;;;;;;;5.00;2.53;;;;;;;;;;5017755;28;20022;-78
2023/10/08 13:14:45;;;;;;;5.50;2.90;;;;;;;;;;5015998;28;20022;-77
2023/10/08 13:17:12;;;;;;;8.85;3.15;;;;;;;;;;5016038;28;20444;-77
2023/10/08 13:19:38;;;;;;;10.35;3.70;;;;;;;;;;5015995;28;20400;-78
2023/10/08 13:22:07;;;;;;;12.40;4.38;;;;;;;;;;5017394;28;20554;-78
2023/10/08 13:24:35;;;;;;;9.50;3.72;;;;;;;;;;5017071;28;20033;-78
2023/10/08 13:27:01;;;;;;;8.77;3.15;;;;;;;;;;5018383;28;20336;-77
2023/10/08 13:29:32;;;;;;;5.82;3.00;;;;;;;;;;5017708;28;20136;-77
2023/10/08 13:31:58;;;;;;;10.55;3.50;;;;;;;;;;5035724;28;20517;-77
2023/10/08 13:34:26;;;;;;;5.65;2.65;;;;;;;;;;5023403;28;20044;-77
2023/10/08 13:36:52;;;;;;;7.85;2.78;;;;;;;;;;5031561;28;20033;-78
2023/10/08 13:39:18;;;;;;;12.02;3.50;;;;;;;;;;5037780;28;20088;-77
2023/10/08 13:41:48;;;;;;;5.25;2.92;;;;;;;;;;5035515;28;20021;-78
2023/10/08 13:44:14;;;;;;;17.17;5.10;;;;;;;;;;5036624;28;20036;-77
2023/10/08 13:46:48;;;;;;;7.10;3.40;;;;;;;;;;5034383;28;20052;-77
2023/10/08 13:49:16;;;;;;;7.25;3.30;;;;;;;;;;5037586;28;20096;-78
2023/10/08 13:51:44;;;;;;;6.47;3.25;;;;;;;;;;5041987;28;20018;-78
2023/10/08 13:54:10;;;;;;;10.20;2.90;;;;;;;;;;5037696;28;20377;-76
2023/10/08 13:56:47;;;;;;;9.63;2.85;;;;;;;;;;5035988;28;20110;-77
2023/10/08 13:59:13;;;;;;;12.50;3.85;;;;;;;;;;5038266;28;20029;-78
2023/10/08 14:01:43;;;;;;;11.10;3.55;;;;;;;;;;5037431;28;20022;-77
2023/10/08 14:04:09;;;;;;;8.07;2.83;;;;;;;;;;5035675;28;20025;-77
2023/10/08 14:06:36;;;;;;;11.10;4.18;;;;;;;;;;5034570;28;20021;-77
2023/10/08 14:09:08;;;;;;;10.73;3.67;;;;;;;;;;5035786;28;20021;-77
2023/10/08 14:11:34;;;;;;;13.85;3.85;;;;;;;;;;5041906;28;20029;-78
2023/10/08 14:14:07;;;;;;;13.15;3.65;;;;;;;;;;5042398;28;20436;-77
2023/10/08 14:16:53;;;;;;;5.60;3.50;;;;;;;;;;5020804;28;20030;-78
2023/10/08 14:19:28;;;;;;;9.75;3.47;;;;;;;;;;5017839;28;20033;-78
2023/10/08 14:22:00;;;;;;;6.22;3.08;;;;;;;;;;5018172;28;20475;-78
2023/10/08 14:24:29;;;;;;;;;;;;;;;;;;5032402;22;20077;-75
2023/10/08 14:26:59;;;;;;;6.57;2.95;;;;;;;;;;4990549;28;20012;-76
2023/10/08 14:29:27;;;;;;;12.30;3.53;;;;;;;;;;4994888;28;20022;-75
2023/10/08 14:31:56;;;;;;;10.00;3.78;;;;;;;;;;4994523;28;20030;-77
2023/10/08 14:42:53;;;;;;;4.25;1.92;;;;;;;;;;4976144;28;20030;-76
2023/10/08 14:42:55;;;;;;;10.00;3.92;;;;;;;;;;4996072;28;20034;-76
2023/10/08 14:45:31;;;;;;;8.05;3.13;;;;;;;;;;4994697;28;20030;-76
2023/10/08 14:47:58;;;;;;;11.30;3.50;;;;;;;;;;4982294;28;20030;-75
2023/10/08 14:50:31;;;;;;;10.18;3.67;;;;;;;;;;5006026;28;20142;-75
2023/10/08 14:52:59;;;;;;;9.07;3.78;;;;;;;;;;5003082;28;20498;-75
2023/10/08 14:55:26;;;;;;;8.02;2.78;;;;;;;;;;5003253;28;20026;-74
2023/10/08 14:57:55;;;;;;;9.55;3.40;;;;;;;;;;5002812;28;20037;-75
2023/10/08 15:00:26;;;;;;;7.25;3.25;;;;;;;;;;5002449;28;20428;-75
2023/10/08 15:02:55;;;;;;;5.35;2.80;;;;;;;;;;4978634;28;20037;-77
2023/10/08 15:05:22;;;;;;;4.90;2.60;;;;;;;;;;4998860;28;20031;-77
2023/10/08 15:07:49;;;;;;;3.67;2.10;;;;;;;;;;4999927;28;20054;-75
2023/10/08 15:10:17;;;;;;;3.30;2.03;;;;;;;;;;5003322;28;20046;-76
2023/10/08 15:12:51;;;;;;;4.60;2.20;;;;;;;;;;5003715;28;20018;-77
2023/10/08 15:15:18;;;;;;;3.42;2.33;;;;;;;;;;4984237;28;20026;-76
2023/10/08 15:17:46;;;;;;;3.25;2.15;;;;;;;;;;5002701;28;20078;-76
2023/10/08 15:20:16;;;;;;;3.33;2.22;;;;;;;;;;5002261;28;20125;-76
2023/10/08 15:22:46;;;;;;;5.25;2.33;;;;;;;;;;5007804;28;20062;-76
2023/10/08 15:25:20;;;;;;;11.93;3.40;;;;;;;;;;4989320;28;20042;-74
2023/10/08 15:27:48;;;;;;;4.65;2.10;;;;;;;;;;4988389;28;20026;-76
2023/10/08 15:30:15;;;;;;;9.65;2.95;;;;;;;;;;5000933;28;20029;-76
2023/10/08 15:32:46;;;;;;;6.60;2.45;;;;;;;;;;4999962;28;20022;-76
2023/10/08 15:35:14;;;;;;;4.10;2.63;;;;;;;;;;5001445;28;20014;-76
2023/10/08 15:37:40;;;;;;;5.75;2.65;;;;;;;;;;5002361;28;20037;-76
2023/10/08 15:40:07;;;;;;;5.25;2.63;;;;;;;;;;5003754;28;20026;-75
2023/10/08 15:42:36;;;;;;;7.25;2.70;;;;;;;;;;5000542;28;20386;-77
2023/10/08 15:45:06;;;;;;;13.00;3.50;;;;;;;;;;4997632;28;20026;-77
2023/10/08 15:47:32;;;;;;;9.02;3.67;;;;;;;;;;4980235;28;20026;-76
2023/10/08 15:49:58;;;;;;;7.78;3.25;;;;;;;;;;4998087;28;20113;-77
2023/10/08 15:52:25;;;;;;;5.30;2.65;;;;;;;;;;4994063;28;20437;-77
2023/10/08 15:54:51;;;;;;;5.82;2.60;;;;;;;;;;4994381;28;20022;-77
2023/10/08 15:57:17;;;;;;;6.70;3.13;;;;;;;;;;4994051;28;20055;-77
2023/10/08 15:59:44;;;;;;;5.00;2.42;;;;;;;;;;4993432;28;20029;-76
2023/10/08 16:02:10;;;;;;;5.72;2.97;;;;;;;;;;4975803;28;20493;-77
2023/10/08 16:04:36;;;;;;;6.15;2.78;;;;;;;;;;4976118;28;20034;-76
2023/10/08 16:07:02;;;;;;;6.18;3.17;;;;;;;;;;4993266;28;20030;-76
2023/10/08 16:09:28;;;;;;;8.15;3.10;;;;;;;;;;4993334;28;20022;-76
2023/10/08 16:11:56;;;;;;;6.20;2.65;;;;;;;;;;4993140;28;20023;-76
2023/10/08 16:14:22;;;;;;;3.90;2.13;;;;;;;;;;4993116;28;20098;-77